Chicago Executive, IL

10:46 AM CST on February 23, 2017 (GMT -0600)
Chicago Executive | | Change Station

Elev 646 ft 42.11 °N, 87.90 °W | Updated 7 minutes ago

Overcast
Overcast
41 °F
Feels Like 34 °F
N
14
Wind Variable Wind from NNE

Today
High -- | Low -- °F
--% Chance of Precip.
Yesterday
High -- | Low -- °F
Precip. -- in
Pressure 29.85 in
Visibility 10.0 miles
Clouds Overcast 1300 ft
Windchill 34 °F
Dew Point 35 °F
Humidity 79%
Rainfall 0.00 in
Snow Depth Not available.
6:35 AM 5:34 PM
Waning Crescent, 9% visible
SPECI KPWK 231639Z 03012KT 10SM OVC013 05/02 A2985 RMK AO2 T00500017
Pressure 29.85 in
Visibility 10.0 miles
Clouds Overcast 1300 ft
Windchill 34 °F
Dew Point 35 °F
Humidity 79%
Rainfall 0.00 in
Snow Depth Not available.
6:35 AM 5:34 PM
Waning Crescent, 9% visible
SPECI KPWK 231639Z 03012KT 10SM OVC013 05/02 A2985 RMK AO2 T00500017

Get Your Daily Forecast Email!

Thanks for signing up!

Be on the lookout for a verification email in your inbox.

You'll start receiving the daily forecast at 8 AM.

×

10-Day Weather Forecast

Almanac

Astronomy

Feb. 23, 2017 Rise Set
Actual Time
Civil Twilight
Nautical Twilight
Astronomical Twilight
Moon
Length of Visible Light
Length of Day
Tomorrow will be .
, % of the Moon is Illuminated

Today's Extremes

State Highs State Lows

Community

WunderPhotos

Upload Photos

1,962,540 photos uploaded!

WunderBlog® & News

Nearby

Air Quality

  Air Quality AQ Index Pollutant
Not available.

Snow Depth

Station Depth Elevation

Earthquake Activity

City Distance Mag. Time & Date
Minimum magnitude displayed is 2.5.

Coastal Water Temperatures

Place Temperature

Stations

Nearby Weather Stations

Station Location Temp. Windchill Dew Point Humidity Wind Precip. Elev Updated Type
                   

Watches & Warnings

There are currently no watches in effect.